Petra, Utah
Current Conditions -  °F | °C
As of 1:52 PM on Thursday 20 Nov 2014 (Local Time) from KMLF Reporting Station
Clear Clear  
Wind Chill: 56°   Ceiling: Unl
Heat Index: 56°   Visibility: 10mi
Dew Point: 14°   Wind: 0mph
Humidity: 19%   Direction: NA
Pressure: 30.01"   Gusts: NA
Location:  39.0932°N, 113.543°W
Report Text: KMLF 202052Z AUTO 00000KT 10SM CLR 13/M10 A3001 RMK AO2 SLP147 T01331100 56025 TSNO
Loading
Personal Weather Stations






























Interactive Weather Map New forecast layout! Learn more

10-Day Weather Forecast

Advertisements
Track Severe Weather on mobile